Time;durP1;ratioP1;P1;durP2;ratioP2;P2;SDS_P1;SDS_P2;PMS_P1;PMS_P2;Temp;Humidity;BMP_temperature;BMP_pressure;BME280_temperature;BME280_humidity;BME280_pressure;Samples;Min_cycle;Max_cycle;Signal;HPM_P1;HPM_P2
2023/02/07 00:02:11;;;;;;;;;;;;;;;;;;5114887;28;19915;-76
2023/02/07 00:04:37;;;;;;;;;;;;;;;;;;5115150;28;19918;-75
2023/02/07 00:07:03;;;;;;;;;;;;;;;;;;5114678;28;19962;-75
2023/02/07 00:09:29;;;;;;;;;;;;;;;;;;5114810;28;19960;-74
2023/02/07 00:11:55;;;;;;;;;;;;;;;;;;5114592;28;19912;-75
2023/02/07 00:14:21;;;;;;;;;;;;;;;;;;5114534;28;19908;-75
2023/02/07 00:16:47;;;;;;;;;;;;;;;;;;5114713;28;19911;-74
2023/02/07 00:19:13;;;;;;;;;;;;;;;;;;5114405;28;19916;-75
2023/02/07 00:21:39;;;;;;;;;;;;;;;;;;5114540;28;19908;-73
2023/02/07 00:24:05;;;;;;;;;;;;;;;;;;5114411;28;20010;-74
2023/02/07 00:26:31;;;;;;;;;;;;;;;;;;5114592;28;19908;-75
2023/02/07 00:28:57;;;;;;;;;;;;;;;;;;5114378;28;20397;-76
2023/02/07 00:31:23;;;;;;;;;;;;;;;;;;5114472;28;19907;-75
2023/02/07 00:33:48;;;;;;;;;;;;;;;;;;5114362;28;20345;-75
2023/02/07 00:36:14;;;;;;;;;;;;;;;;;;5095823;28;20363;-74
2023/02/07 00:38:40;;;;;;;;;;;;;;;;;;5114630;28;19916;-75
2023/02/07 00:41:06;;;;;;;;;;;;;;;;;;5114233;28;19908;-74
2023/02/07 00:43:32;;;;;;;;;;;;;;;;;;5114289;28;19908;-74
2023/02/07 00:45:58;;;;;;;;;;;;;;;;;;5114175;28;19911;-74
2023/02/07 00:48:24;;;;;;;;;;;;;;;;;;5114147;28;19908;-74
2023/02/07 00:50:50;;;;;;;;;;;;;;;;;;5114089;28;20024;-75
2023/02/07 00:53:16;;;;;;;;;;;;;;;;;;5114124;28;20291;-74
2023/02/07 00:55:42;;;;;;;;;;;;;;;;;;5114147;28;19907;-74
2023/02/07 00:58:08;;;;;;;;;;;;;;;;;;5114007;28;19912;-75
2023/02/07 01:00:34;;;;;;;;;;;;;;;;;;5114041;28;19915;-75
2023/02/07 01:03:00;;;;;;;;;;;;;;;;;;5095750;28;20003;-74
2023/02/07 01:05:26;;;;;;;;;;;;;;;;;;5114205;28;19908;-74
2023/02/07 01:07:51;;;;;;;;;;;;;;;;;;5113927;28;19909;-74
2023/02/07 01:10:18;;;;;;;;;;;;;;;;;;5114163;28;19912;-75
2023/02/07 01:12:44;;;;;;;;;;;;;;;;;;5113896;28;19998;-76
2023/02/07 01:15:09;;;;;;;;;;;;;;;;;;5113881;28;19954;-75
2023/02/07 01:17:35;;;;;;;;;;;;;;;;;;5095511;28;19911;-74
2023/02/07 01:20:01;;;;;;;;;;;;;;;;;;5113844;28;20303;-74
2023/02/07 01:22:27;;;;;;;;;;;;;;;;;;5114027;28;19912;-74
2023/02/07 01:24:53;;;;;;;;;;;;;;;;;;5113912;28;19915;-74
2023/02/07 01:27:19;;;;;;;;;;;;;;;;;;5095500;28;19914;-74
2023/02/07 01:29:46;;;;;;;;;;;;;;;;;;5113749;28;19908;-74
2023/02/07 01:32:11;;;;;;;;;;;;;;;;;;5113959;28;19957;-75
2023/02/07 01:34:37;;;;;;;;;;;;;;;;;;5113690;28;20325;-75
2023/02/07 01:37:03;;;;;;;;;;;;;;;;;;5113755;28;20444;-75
2023/02/07 01:39:29;;;;;;;;;;;;;;;;;;5113713;28;19919;-74
2023/02/07 01:41:55;;;;;;;;;;;;;;;;;;5113747;28;19916;-75
2023/02/07 01:44:21;;;;;;;;;;;;;;;;;;5114034;28;19908;-74
2023/02/07 01:46:47;;;;;;;;;;;;;;;;;;5113981;28;19912;-75
2023/02/07 01:49:13;;;;;;;;;;;;;;;;;;5113573;28;19912;-74
2023/02/07 01:51:39;;;;;;;;;;;;;;;;;;5113702;28;19953;-74
2023/02/07 01:54:05;;;;;;;;;;;;;;;;;;5113568;28;19994;-74
2023/02/07 01:56:31;;;;;;;;;;;;;;;;;;5113486;28;19962;-74
2023/02/07 01:58:57;;;;;;;;;;;;;;;;;;5113618;28;19915;-76
2023/02/07 02:01:23;;;;;;;;;;;;;;;;;;5114023;28;19915;-74
2023/02/07 02:03:49;;;;;;;;;;;;;;;;;;5117102;28;19908;-74
2023/02/07 02:06:15;;;;;;;;;;;;;;;;;;5117015;28;20348;-74
2023/02/07 02:08:41;;;;;;;;;;;;;;;;;;5117014;28;19911;-75
2023/02/07 02:11:07;;;;;;;;;;;;;;;;;;5117408;28;19994;-75
2023/02/07 02:13:33;;;;;;;;;;;;;;;;;;5117103;28;19907;-74
2023/02/07 02:15:59;;;;;;;;;;;;;;;;;;5116908;28;20346;-75
2023/02/07 02:18:25;;;;;;;;;;;;;;;;;;5117004;28;19915;-74
2023/02/07 02:20:52;;;;;;;;;;;;;;;;;;5116820;28;20283;-75
2023/02/07 02:23:18;;;;;;;;;;;;;;;;;;5098469;28;20267;-74
2023/02/07 02:25:44;;;;;;;;;;;;;;;;;;5116689;28;19908;-75
2023/02/07 02:28:10;;;;;;;;;;;;;;;;;;5098326;28;19908;-74
2023/02/07 02:30:36;;;;;;;;;;;;;;;;;;5116728;28;19908;-74
2023/02/07 02:33:02;;;;;;;;;;;;;;;;;;5098237;28;19907;-75
2023/02/07 02:35:28;;;;;;;;;;;;;;;;;;5116744;28;19908;-74
2023/02/07 02:37:54;;;;;;;;;;;;;;;;;;5116012;28;19927;-75
2023/02/07 02:40:20;;;;;;;;;;;;;;;;;;5116370;28;19915;-75
2023/02/07 02:42:46;;;;;;;;;;;;;;;;;;5116407;28;19908;-76
2023/02/07 02:45:12;;;;;;;;;;;;;;;;;;5116312;28;19912;-75
2023/02/07 02:47:38;;;;;;;;;;;;;;;;;;5116453;28;19911;-74
2023/02/07 02:50:04;;;;;;;;;;;;;;;;;;5116228;28;19907;-74
2023/02/07 02:52:30;;;;;;;;;;;;;;;;;;5116213;28;19908;-73
2023/02/07 02:54:56;;;;;;;;;;;;;;;;;;5116583;28;19953;-74
2023/02/07 02:57:22;;;;;;;;;;;;;;;;;;5097582;28;19908;-74
2023/02/07 02:59:48;;;;;;;;;;;;;;;;;;5116281;28;20317;-74
2023/02/07 03:02:14;;;;;;;;;;;;;;;;;;5116079;28;19915;-75
2023/02/07 03:04:40;;;;;;;;;;;;;;;;;;5115931;28;19908;-75
2023/02/07 03:07:06;;;;;;;;;;;;;;;;;;5116260;28;20287;-75
2023/02/07 03:09:32;;;;;;;;;;;;;;;;;;5115870;28;20473;-74
2023/02/07 03:11:58;;;;;;;;;;;;;;;;;;5115888;28;19953;-74
2023/02/07 03:14:24;;;;;;;;;;;;;;;;;;5115951;28;19908;-74
2023/02/07 03:16:50;;;;;;;;;;;;;;;;;;5097370;28;20337;-75
2023/02/07 03:19:17;;;;;;;;;;;;;;;;;;5115908;28;20291;-74
2023/02/07 03:21:43;;;;;;;;;;;;;;;;;;5115645;28;19954;-75
2023/02/07 03:24:09;;;;;;;;;;;;;;;;;;5096955;28;19907;-74
2023/02/07 03:26:35;;;;;;;;;;;;;;;;;;5115500;28;19908;-75
2023/02/07 03:29:01;;;;;;;;;;;;;;;;;;5097190;28;19935;-75
2023/02/07 03:31:27;;;;;;;;;;;;;;;;;;5115396;28;19908;-74
2023/02/07 03:33:53;;;;;;;;;;;;;;;;;;5115344;28;19931;-75
2023/02/07 03:36:18;;;;;;;;;;;;;;;;;;5115365;28;20048;-75
2023/02/07 03:38:44;;;;;;;;;;;;;;;;;;5114706;28;19927;-74
2023/02/07 03:41:10;;;;;;;;;;;;;;;;;;5096905;28;19974;-75
2023/02/07 03:43:36;;;;;;;;;;;;;;;;;;5115102;28;19915;-75
2023/02/07 03:46:02;;;;;;;;;;;;;;;;;;5115107;28;19998;-74
2023/02/07 03:48:28;;;;;;;;;;;;;;;;;;5096762;28;19908;-75
2023/02/07 03:50:54;;;;;;;;;;;;;;;;;;5115031;28;19908;-75
2023/02/07 03:53:20;;;;;;;;;;;;;;;;;;5115206;28;19908;-75
2023/02/07 03:55:46;;;;;;;;;;;;;;;;;;5114870;28;20367;-74
2023/02/07 03:58:12;;;;;;;;;;;;;;;;;;5096472;28;19912;-76
2023/02/07 04:00:38;;;;;;;;;;;;;;;;;;5114875;28;20007;-74
2023/02/07 04:03:04;;;;;;;;;;;;;;;;;;5114850;28;19915;-76
2023/02/07 04:05:30;;;;;;;;;;;;;;;;;;5114851;28;19915;-74
2023/02/07 04:07:56;;;;;;;;;;;;;;;;;;5115200;28;19915;-74
2023/02/07 04:10:22;;;;;;;;;;;;;;;;;;5114670;28;19952;-75
2023/02/07 04:12:48;;;;;;;;;;;;;;;;;;5114662;28;19960;-75
2023/02/07 04:15:14;;;;;;;;;;;;;;;;;;5114768;28;19908;-76
2023/02/07 04:17:39;;;;;;;;;;;;;;;;;;5114500;28;19912;-75
2023/02/07 04:20:05;;;;;;;;;;;;;;;;;;5114576;28;20002;-75
2023/02/07 04:22:31;;;;;;;;;;;;;;;;;;5114594;28;19908;-75
2023/02/07 04:24:57;;;;;;;;;;;;;;;;;;5095726;28;19919;-74
2023/02/07 04:27:23;;;;;;;;;;;;;;;;;;5096063;28;19914;-75
2023/02/07 04:29:49;;;;;;;;;;;;;;;;;;5114834;28;19907;-74
2023/02/07 04:32:15;;;;;;;;;;;;;;;;;;5114738;28;19907;-74
2023/02/07 04:34:41;;;;;;;;;;;;;;;;;;5114321;28;19915;-74
2023/02/07 04:37:07;;;;;;;;;;;;;;;;;;5113997;28;19972;-75
2023/02/07 04:39:33;;;;;;;;;;;;;;;;;;5114442;28;20003;-74
2023/02/07 04:41:59;;;;;;;;;;;;;;;;;;5114245;28;20318;-74
2023/02/07 04:44:25;;;;;;;;;;;;;;;;;;5114418;28;20371;-74
2023/02/07 04:46:51;;;;;;;;;;;;;;;;;;5114167;28;19908;-74
2023/02/07 04:49:17;;;;;;;;;;;;;;;;;;5114160;28;19914;-74
2023/02/07 04:51:43;;;;;;;;;;;;;;;;;;5114106;28;20003;-74
2023/02/07 04:54:09;;;;;;;;;;;;;;;;;;5114273;28;19908;-75
2023/02/07 04:56:34;;;;;;;;;;;;;;;;;;5095815;28;19908;-74
2023/02/07 04:59:00;;;;;;;;;;;;;;;;;;5114078;28;20306;-76
2023/02/07 05:01:26;;;;;;;;;;;;;;;;;;5114108;28;20398;-75
2023/02/07 05:03:53;;;;;;;;;;;;;;;;;;5114038;28;20309;-74
2023/02/07 05:06:19;;;;;;;;;;;;;;;;;;5114007;28;19907;-74
2023/02/07 05:08:44;;;;;;;;;;;;;;;;;;5095790;28;19908;-76
2023/02/07 05:11:10;;;;;;;;;;;;;;;;;;5095652;28;19916;-75
2023/02/07 05:13:36;;;;;;;;;;;;;;;;;;5114013;28;19912;-76
2023/02/07 05:16:03;;;;;;;;;;;;;;;;;;5114110;28;19915;-75
2023/02/07 05:18:29;;;;;;;;;;;;;;;;;;5113977;28;19919;-74
2023/02/07 05:20:55;;;;;;;;;;;;;;;;;;5113854;28;19908;-75
2023/02/07 05:23:21;;;;;;;;;;;;;;;;;;5113807;28;19914;-75
2023/02/07 05:25:46;;;;;;;;;;;;;;;;;;5095561;28;19946;-75
2023/02/07 05:28:12;;;;;;;;;;;;;;;;;;5095505;28;19908;-75
2023/02/07 05:30:38;;;;;;;;;;;;;;;;;;5113730;28;20020;-75
2023/02/07 05:33:04;;;;;;;;;;;;;;;;;;5113741;28;19914;-75
2023/02/07 05:35:30;;;;;;;;;;;;;;;;;;5095464;28;19908;-75
2023/02/07 05:37:56;;;;;;;;;;;;;;;;;;5116816;28;19927;-74
2023/02/07 05:40:22;;;;;;;;;;;;;;;;;;5118103;28;19908;-75
2023/02/07 05:42:48;;;;;;;;;;;;;;;;;;5117912;28;20275;-74
2023/02/07 05:45:14;;;;;;;;;;;;;;;;;;5117534;28;20368;-76
2023/02/07 05:47:40;;;;;;;;;;;;;;;;;;5117668;28;20423;-74
2023/02/07 05:50:06;;;;;;;;;;;;;;;;;;5117395;28;19915;-75
2023/02/07 05:52:32;;;;;;;;;;;;;;;;;;5117336;28;20268;-74
2023/02/07 05:54:58;;;;;;;;;;;;;;;;;;5117795;28;20280;-75
2023/02/07 05:57:24;;;;;;;;;;;;;;;;;;5098843;28;20379;-74
2023/02/07 05:59:50;;;;;;;;;;;;;;;;;;5117204;28;19950;-74
2023/02/07 06:02:16;;;;;;;;;;;;;;;;;;5117172;28;19907;-74
2023/02/07 06:04:41;;;;;;;;;;;;;;;;;;5117138;28;19907;-74
2023/02/07 06:07:07;;;;;;;;;;;;;;;;;;5117458;28;19984;-75
2023/02/07 06:09:33;;;;;;;;;;;;;;;;;;5117083;28;20002;-74
2023/02/07 06:11:59;;;;;;;;;;;;;;;;;;5117021;28;19914;-75
2023/02/07 06:14:25;;;;;;;;;;;;;;;;;;5098607;28;19947;-74
2023/02/07 06:16:51;;;;;;;;;;;;;;;;;;5116896;28;20295;-76
2023/02/07 06:19:17;;;;;;;;;;;;;;;;;;5116787;28;20006;-74
2023/02/07 06:21:43;;;;;;;;;;;;;;;;;;5117010;28;19908;-75
2023/02/07 06:24:09;;;;;;;;;;;;;;;;;;5116744;28;19908;-74
2023/02/07 06:26:35;;;;;;;;;;;;;;;;;;5116769;28;19908;-75
2023/02/07 06:29:01;;;;;;;;;;;;;;;;;;5098396;28;20371;-74
2023/02/07 06:31:27;;;;;;;;;;;;;;;;;;5116862;28;19908;-75
2023/02/07 06:33:53;;;;;;;;;;;;;;;;;;5116810;28;19912;-75
2023/02/07 06:36:19;;;;;;;;;;;;;;;;;;5098208;28;20416;-74
2023/02/07 06:38:45;;;;;;;;;;;;;;;;;;5097596;28;19927;-75
2023/02/07 06:41:11;;;;;;;;;;;;;;;;;;5116440;28;19907;-75
2023/02/07 06:43:36;;;;;;;;;;;;;;;;;;5097830;28;19907;-75
2023/02/07 06:46:02;;;;;;;;;;;;;;;;;;5116324;28;19915;-74
2023/02/07 06:48:28;;;;;;;;;;;;;;;;;;5115709;28;19961;-75
2023/02/07 06:50:54;;;;;;;;;;;;;;;;;;5116193;28;19908;-75
2023/02/07 06:53:20;;;;;;;;;;;;;;;;;;5116554;28;19908;-75
2023/02/07 06:55:46;;;;;;;;;;;;;;;;;;5116237;28;20363;-75
2023/02/07 06:58:12;;;;;;;;;;;;;;;;;;5097737;28;19912;-74
2023/02/07 07:00:38;;;;;;;;;;;;;;;;;;5116631;28;19994;-75
2023/02/07 07:03:04;;;;;;;;;;;;;;;;;;5115955;28;19907;-74
2023/02/07 07:05:30;;;;;;;;;;;;;;;;;;5116268;28;20371;-76
2023/02/07 07:07:56;;;;;;;;;;;;;;;;;;5115930;28;19939;-76
2023/02/07 07:10:22;;;;;;;;;;;;;;;;;;5115956;28;19961;-74
2023/02/07 07:12:48;;;;;;;;;;;;;;;;;;5097523;28;19927;-75
2023/02/07 07:15:14;;;;;;;;;;;;;;;;;;5116183;28;19908;-74
2023/02/07 07:17:40;;;;;;;;;;;;;;;;;;5115601;28;19998;-74
2023/02/07 07:20:06;;;;;;;;;;;;;;;;;;5097334;28;19940;-75
2023/02/07 07:22:32;;;;;;;;;;;;;;;;;;5115575;28;19915;-76
2023/02/07 07:24:58;;;;;;;;;;;;;;;;;;5115479;28;19912;-75
2023/02/07 07:27:24;;;;;;;;;;;;;;;;;;5115489;28;20284;-75
2023/02/07 07:29:50;;;;;;;;;;;;;;;;;;5115746;28;20409;-75
2023/02/07 07:32:16;;;;;;;;;;;;;;;;;;5115389;28;19960;-74
2023/02/07 07:34:42;;;;;;;;;;;;;;;;;;5115396;28;19943;-74
2023/02/07 07:37:07;;;;;;;;;;;;;;;;;;5115069;28;19919;-74
2023/02/07 07:39:33;;;;;;;;;;;;;;;;;;5115522;28;19924;-73
2023/02/07 07:41:59;;;;;;;;;;;;;;;;;;5115183;28;19915;-74
2023/02/07 07:44:25;;;;;;;;;;;;;;;;;;5096857;28;19914;-76
2023/02/07 07:46:51;;;;;;;;;;;;;;;;;;5115564;28;19908;-74
2023/02/07 07:49:17;;;;;;;;;;;;;;;;;;5096720;28;19914;-75
2023/02/07 07:51:43;;;;;;;;;;;;;;;;;;5115570;28;19908;-76
2023/02/07 07:54:09;;;;;;;;;;;;;;;;;;5114973;28;19907;-75
2023/02/07 07:56:35;;;;;;;;;;;;;;;;;;5114985;28;19908;-75
2023/02/07 07:59:01;;;;;;;;;;;;;;;;;;5114073;28;19911;-74
2023/02/07 08:01:27;;;;;;;;;;;;;;;;;;5096973;28;19956;-75
2023/02/07 08:03:53;;;;;;;;;;;;;;;;;;5096496;28;19915;-75
2023/02/07 08:06:19;;;;;;;;;;;;;;;;;;5114835;28;19915;-76
2023/02/07 08:08:45;;;;;;;;;;;;;;;;;;5096410;28;19990;-75
2023/02/07 08:11:11;;;;;;;;;;;;;;;;;;5114992;28;19915;-75
2023/02/07 08:13:37;;;;;;;;;;;;;;;;;;5114887;28;19908;-74
2023/02/07 08:16:03;;;;;;;;;;;;;;;;;;5114593;28;19915;-75
2023/02/07 08:18:29;;;;;;;;;;;;;;;;;;5114908;28;19958;-74
2023/02/07 08:20:54;;;;;;;;;;;;;;;;;;5096269;28;19915;-75
2023/02/07 08:23:20;;;;;;;;;;;;;;;;;;5114494;28;19908;-75
2023/02/07 08:25:46;;;;;;;;;;;;;;;;;;5114437;28;20288;-76
2023/02/07 08:28:12;;;;;;;;;;;;;;;;;;5114988;28;20297;-74
2023/02/07 08:30:38;;;;;;;;;;;;;;;;;;5096117;28;19918;-75
2023/02/07 08:33:04;;;;;;;;;;;;;;;;;;5096092;28;19908;-75
2023/02/07 08:35:31;;;;;;;;;;;;;;;;;;5114360;28;19994;-76
2023/02/07 08:37:57;;;;;;;;;;;;;;;;;;5114237;28;19919;-76
2023/02/07 08:40:23;;;;;;;;;;;;;;;;;;5114649;28;20326;-75
2023/02/07 08:42:49;;;;;;;;;;;;;;;;;;5095923;28;20279;-76
2023/02/07 08:45:16;;;;;;;;;;;;;;;;;;5095926;28;19914;-75
2023/02/07 08:47:42;;;;;;;;;;;;;;;;;;5114195;28;20002;-76
2023/02/07 08:50:08;;;;;;;;;;;;;;;;;;5114141;28;19965;-76
2023/02/07 08:52:34;;;;;;;;;;;;;;;;;;5114299;28;19908;-74
2023/02/07 08:55:00;;;;;;;;;;;;;;;;;;5095797;28;20006;-72
2023/02/07 08:57:26;;;;;;;;;;;;;;;;;;5114016;28;19915;-73
2023/02/07 08:59:52;;;;;;;;;;;;;;;;;;5095781;28;19912;-75
2023/02/07 09:02:18;;;;;;;;;;;;;;;;;;5114236;28;19912;-74
2023/02/07 09:04:44;;;;;;;;;;;;;;;;;;5114068;28;19907;-73
2023/02/07 09:07:10;;;;;;;;;;;;;;;;;;5095751;28;19908;-73
2023/02/07 09:09:36;;;;;;;;;;;;;;;;;;5113977;28;19915;-73
2023/02/07 09:12:01;;;;;;;;;;;;;;;;;;5117685;28;19915;-73
2023/02/07 09:14:27;;;;;;;;;;;;;;;;;;5118332;28;19918;-72
2023/02/07 09:16:53;;;;;;;;;;;;;;;;;;5118076;28;19957;-73
2023/02/07 09:19:19;;;;;;;;;;;;;;;;;;5118072;28;19960;-73
2023/02/07 09:21:45;;;;;;;;;;;;;;;;;;5117924;28;19908;-73
2023/02/07 09:24:11;;;;;;;;;;;;;;;;;;5118159;28;20267;-73
2023/02/07 09:26:37;;;;;;;;;;;;;;;;;;5117859;28;20049;-74
2023/02/07 09:29:04;;;;;;;;;;;;;;;;;;5117798;28;20391;-72
2023/02/07 09:31:30;;;;;;;;;;;;;;;;;;5117785;28;19908;-73
2023/02/07 09:33:56;;;;;;;;;;;;;;;;;;5117704;28;20419;-73
2023/02/07 09:36:22;;;;;;;;;;;;;;;;;;5117721;28;20375;-72
2023/02/07 09:38:48;;;;;;;;;;;;;;;;;;5117194;28;20417;-74
2023/02/07 09:41:14;;;;;;;;;;;;;;;;;;5117593;28;19915;-73
2023/02/07 09:43:40;;;;;;;;;;;;;;;;;;5117502;28;19930;-74
2023/02/07 09:46:06;;;;;;;;;;;;;;;;;;5117526;28;19912;-73
2023/02/07 09:48:31;;;;;;;;;;;;;;;;;;5117480;28;19962;-74
2023/02/07 09:50:57;;;;;;;;;;;;;;;;;;5117745;28;19912;-74
2023/02/07 09:53:23;;;;;;;;;;;;;;;;;;5117363;28;20360;-72
2023/02/07 09:55:49;;;;;;;;;;;;;;;;;;5117439;28;19956;-74
2023/02/07 09:58:15;;;;;;;;;;;;;;;;;;5117225;28;19911;-74
2023/02/07 10:00:41;;;;;;;;;;;;;;;;;;5117239;28;19915;-74
2023/02/07 10:03:07;;;;;;;;;;;;;;;;;;5117388;28;19961;-73
2023/02/07 10:05:33;;;;;;;;;;;;;;;;;;5117133;28;19972;-75
2023/02/07 10:07:59;;;;;;;;;;;;;;;;;;5117221;28;19930;-73
2023/02/07 10:10:25;;;;;;;;;;;;;;;;;;5117189;28;19908;-74
2023/02/07 10:12:51;;;;;;;;;;;;;;;;;;5116988;28;19908;-74
2023/02/07 10:15:17;;;;;;;;;;;;;;;;;;5116970;28;19908;-74
2023/02/07 10:17:43;;;;;;;;;;;;;;;;;;5116869;28;19908;-75
2023/02/07 10:20:09;;;;;;;;;;;;;;;;;;5116878;28;20268;-74
2023/02/07 10:22:35;;;;;;;;;;;;;;;;;;5098178;28;19908;-74
2023/02/07 10:25:01;;;;;;;;;;;;;;;;;;5098432;28;19908;-74
2023/02/07 10:27:27;;;;;;;;;;;;;;;;;;5116698;28;19908;-75
2023/02/07 10:29:53;;;;;;;;;;;;;;;;;;5116630;28;19908;-74
2023/02/07 10:32:19;;;;;;;;;;;;;;;;;;5117058;28;19953;-73
2023/02/07 10:34:46;;;;;;;;;;;;;;;;;;5116455;28;20002;-74
2023/02/07 10:37:12;;;;;;;;;;;;;;;;;;5116432;28;19962;-74
2023/02/07 10:39:38;;;;;;;;;;;;;;;;;;5116448;28;19959;-74
2023/02/07 10:42:04;;;;;;;;;;;;;;;;;;5116418;28;20287;-73
2023/02/07 10:44:30;;;;;;;;;;;;;;;;;;5116680;28;19980;-73
2023/02/07 10:46:57;;;;;;;;;;;;;;;;;;5116535;28;20364;-73
2023/02/07 10:49:23;;;;;;;;;;;;;;;;;;5116335;28;19939;-74
2023/02/07 10:51:49;;;;;;;;;;;;;;;;;;5116277;28;19958;-73
2023/02/07 10:54:15;;;;;;;;;;;;;;;;;;5097924;28;20360;-74
2023/02/07 10:56:41;;;;;;;;;;;;;;;;;;5116308;28;19914;-74
2023/02/07 10:59:07;;;;;;;;;;;;;;;;;;5116028;28;19999;-74
2023/02/07 11:01:33;;;;;;;;;;;;;;;;;;5116048;28;20399;-73
2023/02/07 11:03:59;;;;;;;;;;;;;;;;;;5115983;28;19958;-74
2023/02/07 11:06:25;;;;;;;;;;;;;;;;;;5116081;28;19908;-74
2023/02/07 11:08:51;;;;;;;;;;;;;;;;;;5116106;28;19907;-74
2023/02/07 11:11:17;;;;;;;;;;;;;;;;;;5115853;28;20279;-75
2023/02/07 11:13:43;;;;;;;;;;;;;;;;;;5115808;28;20287;-74
2023/02/07 11:16:09;;;;;;;;;;;;;;;;;;5115781;28;20002;-75
2023/02/07 11:18:39;;;;;;;;;;;;;;;;;;5115622;28;19911;-74
2023/02/07 11:21:05;;;;;;;;;;;;;;;;;;5115880;28;20406;-75
2023/02/07 11:23:31;;;;;;;;;;;;;;;;;;5115807;28;19912;-74
2023/02/07 11:25:57;;;;;;;;;;;;;;;;;;5115505;28;19914;-74
2023/02/07 11:28:24;;;;;;;;;;;;;;;;;;5112835;28;19915;-74
2023/02/07 11:30:50;;;;;;;;;;;;;;;;;;5097208;28;19953;-74
2023/02/07 11:33:18;;;;;;;;;;;;;;;;;;5115724;28;19908;-75
2023/02/07 11:35:44;;;;;;;;;;;;;;;;;;5113381;28;19908;-75
2023/02/07 11:38:09;;;;;;;;;;;;;;;;;;5094837;28;19927;-73
2023/02/07 11:40:36;;;;;;;;;;;;;;;;;;5094702;28;19963;-74
2023/02/07 11:43:02;;;;;;;;;;;;;;;;;;5094883;28;19908;-75
2023/02/07 11:45:28;;;;;;;;;;;;;;;;;;5094815;28;19919;-74
2023/02/07 11:47:54;;;;;;;;;;;;;;;;;;5091467;28;19933;-74
2023/02/07 11:50:20;;;;;;;;;;;;;;;;;;5086937;28;19951;-75
2023/02/07 11:52:46;;;;;;;;;;;;;;;;;;5094707;28;19964;-74
2023/02/07 11:55:12;;;;;;;;;;;;;;;;;;5094495;28;19908;-75
2023/02/07 11:57:39;;;;;;;;;;;;;;;;;;5076095;28;19916;-74
2023/02/07 12:00:05;;;;;;;;;;;;;;;;;;5100268;28;20041;-74
2023/02/07 12:02:32;;;;;;;;;;;;;;;;;;5103805;28;19908;-74
2023/02/07 12:04:58;;;;;;;;;;;;;;;;;;5105021;28;19923;-75
2023/02/07 12:07:24;;;;;;;;;;;;;;;;;;5103262;28;19908;-75
2023/02/07 12:09:50;;;;;;;;;;;;;;;;;;5104001;28;19969;-74
2023/02/07 12:12:16;;;;;;;;;;;;;;;;;;5104773;28;20346;-74
2023/02/07 12:14:42;;;;;;;;;;;;;;;;;;5102677;28;20322;-74
2023/02/07 12:17:09;;;;;;;;;;;;;;;;;;5104211;28;19965;-74
2023/02/07 12:19:35;;;;;;;;;;;;;;;;;;5104450;28;19912;-75
2023/02/07 12:22:02;;;;;;;;;;;;;;;;;;5102625;28;20337;-76
2023/02/07 12:24:28;;;;;;;;;;;;;;;;;;5103878;28;19959;-76
2023/02/07 12:26:54;;;;;;;;;;;;;;;;;;5104343;28;20002;-74
2023/02/07 12:29:20;;;;;;;;;;;;;;;;;;5102789;28;20383;-74
2023/02/07 12:31:47;;;;;;;;;;;;;;;;;;5108184;28;19915;-74
2023/02/07 12:34:12;;;;;;;;;;;;;;;;;;5114400;28;20249;-74
2023/02/07 12:36:38;;;;;;;;;;;;;;;;;;5113165;28;19919;-74
2023/02/07 12:39:04;;;;;;;;;;;;;;;;;;5094323;28;20010;-75
2023/02/07 12:41:30;;;;;;;;;;;;;;;;;;5093925;28;19944;-74
2023/02/07 12:43:56;;;;;;;;;;;;;;;;;;5094174;28;19908;-75
2023/02/07 12:46:22;;;;;;;;;;;;;;;;;;5093411;28;19908;-75
2023/02/07 12:48:48;;;;;;;;;;;;;;;;;;5075643;28;19912;-75
2023/02/07 12:51:14;;;;;;;;;;;;;;;;;;5093781;28;19950;-75
2023/02/07 12:53:40;;;;;;;;;;;;;;;;;;5093784;28;19908;-75
2023/02/07 12:56:06;;;;;;;;;;;;;;;;;;5093949;28;19912;-75
2023/02/07 12:58:32;;;;;;;;;;;;;;;;;;5093642;28;19970;-74
2023/02/07 13:00:58;;;;;;;;;;;;;;;;;;5093690;28;19919;-75
2023/02/07 13:03:24;;;;;;;;;;;;;;;;;;5093862;28;19908;-76
2023/02/07 13:05:50;;;;;;;;;;;;;;;;;;5093662;28;20038;-73
2023/02/07 13:08:16;;;;;;;;;;;;;;;;;;5093642;28;19908;-75
2023/02/07 13:10:42;;;;;;;;;;;;;;;;;;5093631;28;19908;-75
2023/02/07 13:13:08;;;;;;;;;;;;;;;;;;5093567;28;19919;-75
2023/02/07 13:15:34;;;;;;;;;;;;;;;;;;5093560;28;19908;-75
2023/02/07 13:18:00;;;;;;;;;;;;;;;;;;5075389;28;19965;-74
2023/02/07 13:20:26;;;;;;;;;;;;;;;;;;5093503;28;20353;-74
2023/02/07 13:22:52;;;;;;;;;;;;;;;;;;5093706;28;20276;-76
2023/02/07 13:25:18;;;;;;;;;;;;;;;;;;5093544;28;19965;-75
2023/02/07 13:27:44;;;;;;;;;;;;;;;;;;5093457;28;19908;-74
2023/02/07 13:30:10;;;;;;;;;;;;;;;;;;5075304;28;19909;-74
2023/02/07 13:32:36;;;;;;;;;;;;;;;;;;5093463;28;19957;-74
2023/02/07 13:35:02;;;;;;;;;;;;;;;;;;5093568;28;19908;-74
2023/02/07 13:37:28;;;;;;;;;;;;;;;;;;5093157;28;20385;-75
2023/02/07 13:39:54;;;;;;;;;;;;;;;;;;5093331;28;20381;-75
2023/02/07 13:42:20;;;;;;;;;;;;;;;;;;5093815;28;19912;-73
2023/02/07 13:44:46;;;;;;;;;;;;;;;;;;5093380;28;19909;-74
2023/02/07 13:47:12;;;;;;;;;;;;;;;;;;5075163;28;19915;-74
2023/02/07 13:49:38;;;;;;;;;;;;;;;;;;5093562;28;19912;-75
2023/02/07 13:52:04;;;;;;;;;;;;;;;;;;5093642;28;19942;-75
2023/02/07 13:54:30;;;;;;;;;;;;;;;;;;5093826;28;20386;-73
2023/02/07 13:59:41;;;;;;;;;;;;;;;;;;5096503;28;19918;-74
2023/02/07 14:02:07;;;;;;;;;;;;;;;;;;5097224;28;19914;-74
2023/02/07 14:04:33;;;;;;;;;;;;;;;;;;5097115;28;19908;-73
2023/02/07 14:06:59;;;;;;;;;;;;;;;;;;5096798;28;19951;-74
2023/02/07 14:09:26;;;;;;;;;;;;;;;;;;5096680;28;19908;-74
2023/02/07 14:11:52;;;;;;;;;;;;;;;;;;5079164;28;20007;-73
2023/02/07 14:14:18;;;;;;;;;;;;;;;;;;5096962;28;19912;-73
2023/02/07 14:16:44;;;;;;;;;;;;;;;;;;5096571;28;19915;-74
2023/02/07 14:19:10;;;;;;;;;;;;;;;;;;5096355;28;19912;-74
2023/02/07 14:21:35;;;;;;;;;;;;;;;;;;5096618;28;19908;-74
2023/02/07 14:24:01;;;;;;;;;;;;;;;;;;5096374;28;20253;-74
2023/02/07 14:26:27;;;;;;;;;;;;;;;;;;5096520;28;20360;-74
2023/02/07 14:28:53;;;;;;;;;;;;;;;;;;5096279;28;19909;-75
2023/02/07 14:31:19;;;;;;;;;;;;;;;;;;5096219;28;20049;-74
2023/02/07 14:33:45;;;;;;;;;;;;;;;;;;5096354;28;19948;-74
2023/02/07 14:36:11;;;;;;;;;;;;;;;;;;5096264;28;19908;-74
2023/02/07 14:38:37;;;;;;;;;;;;;;;;;;5095870;28;19920;-74
2023/02/07 14:41:03;;;;;;;;;;;;;;;;;;5096083;28;19908;-74
2023/02/07 14:43:29;;;;;;;;;;;;;;;;;;5096067;28;19912;-73
2023/02/07 14:45:55;;;;;;;;;;;;;;;;;;5095998;28;20438;-74
2023/02/07 14:48:21;;;;;;;;;;;;;;;;;;5096015;28;19912;-74
2023/02/07 14:50:47;;;;;;;;;;;;;;;;;;5095903;28;20368;-73
2023/02/07 14:53:13;;;;;;;;;;;;;;;;;;5095948;28;19908;-73
2023/02/07 14:55:38;;;;;;;;;;;;;;;;;;5095697;28;19918;-74
2023/02/07 14:58:04;;;;;;;;;;;;;;;;;;5096242;28;20010;-74
2023/02/07 15:00:30;;;;;;;;;;;;;;;;;;5095677;28;19947;-73
2023/02/07 15:02:57;;;;;;;;;;;;;;;;;;5095694;28;19915;-73
2023/02/07 15:05:23;;;;;;;;;;;;;;;;;;5095981;28;19908;-73
2023/02/07 15:07:49;;;;;;;;;;;;;;;;;;5095277;28;20041;-73
2023/02/07 15:10:15;;;;;;;;;;;;;;;;;;5077255;28;19954;-73
2023/02/07 15:12:42;;;;;;;;;;;;;;;;;;5095415;28;19908;-74
2023/02/07 15:15:08;;;;;;;;;;;;;;;;;;5095422;28;20279;-73
2023/02/07 15:17:34;;;;;;;;;;;;;;;;;;5095704;28;20003;-73
2023/02/07 15:20:00;;;;;;;;;;;;;;;;;;5095516;28;19955;-73
2023/02/07 15:22:26;;;;;;;;;;;;;;;;;;5095409;28;20300;-73
2023/02/07 15:24:52;;;;;;;;;;;;;;;;;;5095267;28;19909;-74
2023/02/07 15:27:18;;;;;;;;;;;;;;;;;;5095187;28;19908;-73
2023/02/07 15:29:44;;;;;;;;;;;;;;;;;;5095298;28;19908;-73
2023/02/07 15:32:10;;;;;;;;;;;;;;;;;;5095087;28;19943;-73
2023/02/07 15:34:35;;;;;;;;;;;;;;;;;;5095053;28;19958;-72
2023/02/07 15:37:01;;;;;;;;;;;;;;;;;;5095389;28;19912;-72
2023/02/07 15:39:27;;;;;;;;;;;;;;;;;;5095320;28;20360;-73
2023/02/07 15:41:54;;;;;;;;;;;;;;;;;;5094951;28;19915;-73
2023/02/07 15:44:20;;;;;;;;;;;;;;;;;;5094941;28;20042;-74
2023/02/07 15:46:46;;;;;;;;;;;;;;;;;;5094875;28;19954;-74
2023/02/07 15:49:12;;;;;;;;;;;;;;;;;;5095196;28;19958;-74
2023/02/07 15:51:40;;;;;;;;;;;;;;;;;;5076521;28;20342;-74
2023/02/07 15:54:05;;;;;;;;;;;;;;;;;;5076483;28;19908;-74
2023/02/07 15:56:31;;;;;;;;;;;;;;;;;;5076349;28;19908;-74
2023/02/07 15:58:57;;;;;;;;;;;;;;;;;;5094453;28;19911;-74
2023/02/07 16:01:23;;;;;;;;;;;;;;;;;;5076322;28;20284;-73
2023/02/07 16:03:50;;;;;;;;;;;;;;;;;;5094510;28;20367;-73
2023/02/07 16:06:16;;;;;;;;;;;;;;;;;;5076204;28;19914;-73
2023/02/07 16:08:43;;;;;;;;;;;;;;;;;;5094451;28;19908;-74
2023/02/07 16:11:09;;;;;;;;;;;;;;;;;;5094304;28;20423;-74
2023/02/07 16:13:35;;;;;;;;;;;;;;;;;;5094583;28;19915;-74
2023/02/07 16:16:01;;;;;;;;;;;;;;;;;;5076110;28;19908;-74
2023/02/07 16:18:27;;;;;;;;;;;;;;;;;;5094133;28;19912;-74
2023/02/07 16:20:53;;;;;;;;;;;;;;;;;;5093538;28;19957;-74
2023/02/07 16:23:18;;;;;;;;;;;;;;;;;;5094131;28;20387;-74
2023/02/07 16:25:44;;;;;;;;;;;;;;;;;;5093990;28;19908;-74
2023/02/07 16:28:10;;;;;;;;;;;;;;;;;;5094075;28;19908;-74
2023/02/07 16:30:36;;;;;;;;;;;;;;;;;;5075827;28;19912;-73
2023/02/07 16:33:02;;;;;;;;;;;;;;;;;;5094071;28;20383;-74
2023/02/07 16:35:28;;;;;;;;;;;;;;;;;;5075831;28;19912;-73
2023/02/07 16:37:54;;;;;;;;;;;;;;;;;;5086864;28;19915;-72
2023/02/07 16:40:22;;;;;;;;;;;;;;;;;;5113832;28;20185;-73